Time;durP1;ratioP1;P1;durP2;ratioP2;P2;SDS_P1;SDS_P2;PMS_P1;PMS_P2;Temp;Humidity;BMP_temperature;BMP_pressure;BME280_temperature;BME280_humidity;BME280_pressure;Samples;Min_cycle;Max_cycle;Signal;HPM_P1;HPM_P2
2024/02/19 00:00:51;;;;;;;1.23;1.13;;;;;;;10.42;85.72;100308.97;4824977;29;20058;-78
2024/02/19 00:03:20;;;;;;;2.33;1.30;;;;;;;10.41;85.86;100317.81;4824814;29;20488;-78
2024/02/19 00:05:47;;;;;;;1.17;1.08;;;;;;;10.39;85.90;100325.75;4824738;29;20108;-78
2024/02/19 00:08:14;;;;;;;3.08;1.40;;;;;;;10.38;85.88;100325.84;4824786;29;20120;-77
2024/02/19 00:10:40;;;;;;;2.65;1.38;;;;;;;10.37;85.82;100335.53;4824756;29;20174;-79
2024/02/19 00:13:07;;;;;;;2.95;1.55;;;;;;;10.36;85.72;100338.22;4824868;29;20058;-78
2024/02/19 00:15:34;;;;;;;2.08;1.60;;;;;;;10.35;85.81;100344.41;4824651;29;20070;-77
2024/02/19 00:18:00;;;;;;;2.60;1.60;;;;;;;10.33;85.83;100333.97;4824503;29;20066;-78
2024/02/19 00:20:28;;;;;;;2.67;1.77;;;;;;;10.33;85.81;100348.88;4824348;29;20573;-78
2024/02/19 00:22:58;;;;;;;2.22;1.40;;;;;;;10.30;85.55;100360.41;4824599;29;20058;-78
2024/02/19 00:25:25;;;;;;;3.75;1.70;;;;;;;10.30;85.76;100366.53;4824415;29;20107;-77
2024/02/19 00:27:52;;;;;;;3.58;1.70;;;;;;;10.31;85.86;100372.63;4824151;29;20557;-78
2024/02/19 00:30:18;;;;;;;3.38;1.70;;;;;;;10.29;85.65;100374.50;4824362;29;20061;-76
2024/02/19 00:32:45;;;;;;;7.65;2.10;;;;;;;10.27;85.31;100387.72;4824327;29;20082;-77
2024/02/19 00:35:11;;;;;;;8.48;2.35;;;;;;;10.26;85.61;100387.78;4824591;29;20530;-77
2024/02/19 00:37:38;;;;;;;4.47;2.00;;;;;;;10.24;85.54;100395.75;4824223;29;20065;-77
2024/02/19 00:40:05;;;;;;;5.30;2.90;;;;;;;10.23;85.66;100401.94;4824281;29;20085;-77
2024/02/19 00:42:32;;;;;;;4.15;2.28;;;;;;;10.22;85.35;100404.63;4824290;29;20077;-74
2024/02/19 00:44:59;;;;;;;7.40;2.33;;;;;;;10.22;85.31;100417.78;4823964;29;20064;-78
2024/02/19 00:47:25;;;;;;;7.10;1.75;;;;;;;10.19;85.19;100421.41;4824092;29;20051;-78
2024/02/19 00:49:52;;;;;;;9.70;2.13;;;;;;;10.17;85.19;100418.84;4824174;29;20050;-78
2024/02/19 00:52:19;;;;;;;8.88;2.63;;;;;;;10.15;85.06;100414.56;4824092;29;20563;-78
2024/02/19 00:54:45;;;;;;;4.35;2.30;;;;;;;10.13;85.18;100416.44;4823918;29;20481;-80
2024/02/19 00:57:12;;;;;;;9.02;2.63;;;;;;;10.13;85.23;100429.59;4823693;29;20055;-75
2024/02/19 00:59:39;;;;;;;10.43;2.50;;;;;;;10.10;85.30;100427.94;4823902;29;20553;-78
2024/02/19 01:02:05;;;;;;;8.23;2.47;;;;;;;10.11;85.14;100439.31;4822946;29;20528;-79
2024/02/19 01:04:32;;;;;;;9.30;2.55;;;;;;;10.10;85.05;100442.88;4823707;29;20561;-77
2024/02/19 01:06:59;;;;;;;6.60;2.97;;;;;;;10.07;84.98;100443.88;4823550;29;20050;-78
2024/02/19 01:09:25;;;;;;;5.82;2.38;;;;;;;10.06;84.64;100438.66;4823951;29;20054;-78
2024/02/19 01:11:52;;;;;;;6.70;1.98;;;;;;;10.05;84.54;100453.59;4823667;29;20058;-78
2024/02/19 01:14:19;;;;;;;5.45;1.73;;;;;;;10.03;84.55;100452.81;4823676;29;20055;-74
2024/02/19 01:16:48;;;;;;;4.63;1.80;;;;;;;9.99;84.60;100459.97;4823258;29;20054;-78
2024/02/19 01:19:15;;;;;;;4.47;1.80;;;;;;;9.98;84.47;100462.69;4823657;29;20141;-78
2024/02/19 01:21:41;;;;;;;4.57;1.63;;;;;;;9.96;84.33;100461.88;4823666;29;20050;-78
2024/02/19 01:24:08;;;;;;;5.05;1.38;;;;;;;9.93;84.23;100452.34;4823546;29;20095;-77
2024/02/19 01:26:35;;;;;;;5.18;1.65;;;;;;;9.91;84.26;100462.94;4823435;29;20103;-76
2024/02/19 01:29:01;;;;;;;6.20;1.10;;;;;;;9.89;84.18;100466.53;4823112;29;20054;-78
2024/02/19 01:31:28;;;;;;;6.00;1.35;;;;;;;9.88;84.23;100475.38;4823536;29;20055;-76
2024/02/19 01:33:55;;;;;;;6.38;1.38;;;;;;;9.86;84.23;100482.44;4823762;29;20132;-74
2024/02/19 01:36:21;;;;;;;5.43;1.35;;;;;;;9.83;84.08;100478.16;4823266;29;20141;-77
2024/02/19 01:38:48;;;;;;;5.65;1.50;;;;;;;9.81;83.95;100494.94;4823451;29;20054;-78
2024/02/19 01:41:14;;;;;;;3.40;1.40;;;;;;;9.76;83.73;100489.88;4823272;29;20103;-76
2024/02/19 01:43:43;;;;;;;2.25;1.15;;;;;;;9.72;83.68;100485.69;4823379;29;20066;-77
2024/02/19 01:46:11;;;;;;;4.55;1.23;;;;;;;9.69;84.06;100510.31;4823399;29;20051;-77
2024/02/19 01:48:37;;;;;;;7.40;1.65;;;;;;;9.67;84.07;100504.25;4822936;29;20469;-76
2024/02/19 01:51:04;;;;;;;3.42;0.98;;;;;;;9.65;84.30;100506.94;4823559;29;20058;-76
2024/02/19 01:53:31;;;;;;;4.28;1.00;;;;;;;9.64;84.27;100513.13;4823219;29;20062;-76
2024/02/19 01:55:58;;;;;;;6.13;1.27;;;;;;;9.63;84.33;100518.44;4806280;29;20127;-78
2024/02/19 01:58:26;;;;;;;5.13;1.50;;;;;;;9.63;84.34;100527.19;4822419;29;20054;-79
2024/02/19 02:00:53;;;;;;;6.22;1.48;;;;;;;9.63;84.53;100527.19;4822458;29;20548;-77
2024/02/19 02:03:21;;;;;;;5.50;1.75;;;;;;;9.62;84.19;100529.88;4822881;29;20504;-75
2024/02/19 02:05:48;;;;;;;6.03;1.35;;;;;;;9.63;84.46;100528.97;4823088;29;20062;-76
2024/02/19 02:08:15;;;;;;;7.45;1.45;;;;;;;9.61;84.64;100523.75;4822857;29;20058;-78
2024/02/19 02:10:49;;;;;;;6.28;1.27;;;;;;;9.61;84.46;100536.06;4822807;29;20508;-78
2024/02/19 02:13:24;;;;;;;8.10;1.67;;;;;;;9.59;84.23;100536.13;4822627;29;20094;-76
2024/02/19 02:15:51;;;;;;;9.30;1.63;;;;;;;9.58;84.12;100547.56;4822855;29;20065;-77
2024/02/19 02:18:18;;;;;;;6.35;1.73;;;;;;;9.56;84.27;100543.25;4822853;29;20524;-78
2024/02/19 02:20:45;;;;;;;10.38;1.98;;;;;;;9.55;84.20;100538.91;4822667;29;20054;-77
2024/02/19 02:23:14;;;;;;;10.45;2.00;;;;;;;9.51;84.23;100552.22;4822589;29;20061;-78
2024/02/19 02:25:41;;;;;;;11.43;1.85;;;;;;;9.52;84.61;100555.66;4822468;29;20099;-77
2024/02/19 02:28:07;;;;;;;8.18;2.10;;;;;;;9.51;84.53;100562.72;4806254;29;20107;-76
2024/02/19 02:30:34;;;;;;;10.80;2.50;;;;;;;9.51;84.71;100557.47;4822702;29;20058;-75
2024/02/19 02:33:01;;;;;;;9.82;2.20;;;;;;;9.51;84.58;100559.22;4822679;29;20061;-77
2024/02/19 02:35:28;;;;;;;8.18;1.80;;;;;;;9.51;84.96;100560.09;4822361;29;20086;-77
2024/02/19 02:37:55;;;;;;;7.72;2.22;;;;;;;9.51;84.75;100559.22;4822470;29;20145;-77
2024/02/19 02:40:21;;;;;;;23.85;3.13;;;;;;;9.51;84.73;100564.47;4822728;29;20097;-78
2024/02/19 02:42:48;;;;;;;13.90;2.42;;;;;;;9.51;84.69;100570.59;4822445;29;20064;-76
2024/02/19 02:45:16;;;;;;;12.60;2.33;;;;;;;9.49;84.70;100575.06;4822480;29;20064;-78
2024/02/19 02:47:44;;;;;;;16.77;2.67;;;;;;;9.50;84.75;100576.75;4805804;29;20058;-78
2024/02/19 02:50:11;;;;;;;18.17;2.95;;;;;;;9.50;84.71;100560.16;4822315;29;20519;-77
2024/02/19 02:52:37;;;;;;;16.55;2.45;;;;;;;9.49;84.60;100563.66;4822213;29;20553;-77
2024/02/19 02:55:04;;;;;;;12.30;2.30;;;;;;;9.49;84.55;100568.94;4822393;29;20058;-77
2024/02/19 02:57:31;;;;;;;9.52;2.78;;;;;;;9.47;84.60;100566.38;4822103;29;20056;-80
2024/02/19 02:59:57;;;;;;;10.15;2.33;;;;;;;9.46;84.59;100572.53;4822363;29;20470;-78
2024/02/19 03:02:24;;;;;;;9.75;2.72;;;;;;;9.46;84.54;100569.91;4822107;29;20050;-77
2024/02/19 03:04:51;;;;;;;9.88;2.20;;;;;;;9.45;84.40;100580.47;4822353;29;20059;-77
2024/02/19 03:07:18;;;;;;;11.40;2.47;;;;;;;9.44;84.37;100582.25;4821849;29;20054;-78
2024/02/19 03:09:44;;;;;;;6.10;1.83;;;;;;;9.43;84.61;100585.81;4822269;29;20074;-80
2024/02/19 03:12:11;;;;;;;8.85;2.70;;;;;;;9.43;84.49;100592.81;4886396;24;20065;-81
2024/02/19 03:14:37;;;;;;;6.47;2.00;;;;;;;9.42;84.53;100585.88;4822070;29;20133;-78
2024/02/19 03:17:04;;;;;;;6.50;2.40;;;;;;;9.39;84.27;100590.31;4821853;29;20058;-77
2024/02/19 03:19:43;;;;;;;4.88;2.13;;;;;;;9.37;83.84;100586.03;4823002;29;20149;-77
2024/02/19 03:22:10;;;;;;;8.18;1.98;;;;;;;9.39;84.45;100581.59;4822202;29;20069;-78
2024/02/19 03:24:36;;;;;;;6.85;1.90;;;;;;;9.39;84.54;100594.72;4806917;29;20062;-75
2024/02/19 03:27:04;;;;;;;5.32;1.80;;;;;;;9.38;84.41;100595.63;4825251;29;20047;-77
2024/02/19 03:29:31;;;;;;;8.43;2.22;;;;;;;9.40;84.38;100593.81;4809340;29;20062;-77
2024/02/19 03:31:57;;;;;;;7.07;2.67;;;;;;;9.39;84.57;100594.72;4825368;29;20063;-78
2024/02/19 03:34:24;;;;;;;7.95;3.03;;;;;;;9.39;84.54;100599.97;4825354;29;20077;-78
2024/02/19 03:36:51;;;;;;;11.15;3.67;;;;;;;9.38;84.18;100601.75;4824988;29;20498;-76
2024/02/19 03:39:18;;;;;;;6.93;3.63;;;;;;;9.37;84.47;100607.94;4825091;29;20119;-77
2024/02/19 03:41:44;;;;;;;7.57;3.55;;;;;;;9.38;84.88;100601.75;4825003;29;20126;-76
2024/02/19 03:44:11;;;;;;;11.27;3.92;;;;;;;9.40;85.05;100609.56;4825004;29;20085;-78
2024/02/19 03:46:37;;;;;;;7.28;3.20;;;;;;;9.41;85.27;100603.41;4825274;29;20062;-77
2024/02/19 03:49:04;;;;;;;6.75;2.50;;;;;;;9.43;84.99;100606.84;4824823;29;20591;-77
2024/02/19 03:51:31;;;;;;;4.38;2.33;;;;;;;9.45;84.79;100599.72;4825097;29;20135;-75
2024/02/19 03:53:57;;;;;;;5.22;2.20;;;;;;;9.46;84.60;100619.00;4872733;24;20138;-78
2024/02/19 03:56:24;;;;;;;6.28;1.92;;;;;;;9.46;84.78;100617.22;4824226;29;20062;-79
2024/02/19 03:58:51;;;;;;;5.88;2.00;;;;;;;9.48;84.69;100615.41;4824958;29;20050;-77
2024/02/19 04:01:18;;;;;;;5.70;1.60;;;;;;;9.48;84.55;100609.28;4825301;29;20065;-80
2024/02/19 04:03:44;;;;;;;4.18;2.13;;;;;;;9.48;84.71;100617.16;4825003;29;20129;-80
2024/02/19 04:06:11;;;;;;;4.28;2.30;;;;;;;9.48;84.79;100619.78;4808805;29;20051;-78
2024/02/19 04:08:40;;;;;;;4.53;2.17;;;;;;;9.49;84.82;100616.22;4824638;29;20507;-79
2024/02/19 04:11:06;;;;;;;3.45;1.73;;;;;;;9.49;84.77;100622.34;4824086;29;20081;-78
2024/02/19 04:13:33;;;;;;;5.47;1.70;;;;;;;9.48;84.88;100623.28;4824002;29;20065;-80
2024/02/19 04:15:59;;;;;;;2.17;1.40;;;;;;;9.49;85.23;100622.34;4807947;29;20097;-79
2024/02/19 04:18:26;;;;;;;2.28;1.10;;;;;;;9.51;85.06;100620.53;4823555;29;20440;-81
2024/02/19 04:20:53;;;;;;;2.70;1.55;;;;;;;9.52;84.89;100626.63;4823914;29;20058;-76
2024/02/19 04:23:19;;;;;;;4.28;1.67;;;;;;;9.54;84.99;100626.59;4807585;29;20058;-80
2024/02/19 04:25:47;;;;;;;3.15;1.52;;;;;;;9.53;84.88;100630.97;4823634;29;20062;-80
2024/02/19 04:28:14;;;;;;;5.40;1.63;;;;;;;9.54;85.14;100632.72;4823515;29;20062;-80
2024/02/19 04:30:40;;;;;;;2.83;1.98;;;;;;;9.55;84.89;100629.16;4823581;29;20050;-79
2024/02/19 04:33:07;;;;;;;5.03;2.13;;;;;;;9.56;84.67;100630.00;4807680;29;20058;-81
2024/02/19 04:35:34;;;;;;;3.75;2.28;;;;;;;9.55;84.76;100631.78;4822616;29;20059;-80
2024/02/19 04:38:00;;;;;;;4.55;2.08;;;;;;;9.55;84.64;100626.53;4822947;29;20102;-80
2024/02/19 04:40:27;;;;;;;3.58;2.03;;;;;;;9.55;84.80;100636.16;4823450;29;20062;-80
2024/02/19 04:42:54;;;;;;;4.80;2.30;;;;;;;9.55;84.82;100636.16;4807489;29;20064;-79
2024/02/19 04:45:21;;;;;;;2.72;1.92;;;;;;;9.55;84.93;100644.94;4823591;29;20058;-80
2024/02/19 04:47:47;;;;;;;6.60;2.50;;;;;;;9.56;84.96;100637.88;4822906;29;20093;-81
2024/02/19 04:50:15;;;;;;;3.38;2.08;;;;;;;9.56;84.86;100637.88;4823466;29;20062;-78
2024/02/19 04:52:42;;;;;;;3.83;2.13;;;;;;;9.56;84.97;100638.75;4823276;29;20058;-78
2024/02/19 04:55:09;;;;;;;5.68;2.65;;;;;;;9.56;85.07;100643.13;4823272;29;20116;-79
2024/02/19 04:57:35;;;;;;;5.75;2.42;;;;;;;9.55;85.07;100652.81;4822883;29;20065;-82
2024/02/19 05:00:03;;;;;;;2.70;2.10;;;;;;;9.56;85.23;100637.88;4807021;29;20462;-79
2024/02/19 05:02:29;;;;;;;9.00;2.95;;;;;;;9.57;85.36;100647.50;4823181;29;20054;-80
2024/02/19 05:04:56;;;;;;;5.15;2.55;;;;;;;9.58;85.24;100641.31;4823219;29;20123;-78
2024/02/19 05:07:22;;;;;;;5.32;2.20;;;;;;;9.59;85.27;100656.16;4822799;29;20157;-80
2024/02/19 05:09:49;;;;;;;3.85;2.25;;;;;;;9.60;85.34;100644.72;4823335;29;20054;-80
2024/02/19 05:12:16;;;;;;;4.75;2.40;;;;;;;9.61;85.49;100642.03;4806450;29;20406;-79
2024/02/19 05:14:43;;;;;;;4.13;2.40;;;;;;;9.62;85.26;100645.53;4823258;29;20522;-79
2024/02/19 05:17:10;;;;;;;5.72;2.90;;;;;;;9.64;85.48;100646.31;4822860;29;20050;-80
2024/02/19 05:19:37;;;;;;;5.00;2.63;;;;;;;9.64;85.50;100646.31;4823098;29;20061;-80
2024/02/19 05:22:04;;;;;;;7.85;2.45;;;;;;;9.65;85.66;100648.91;4822828;29;20053;-81
2024/02/19 05:24:30;;;;;;;6.05;2.35;;;;;;;9.68;85.24;100652.34;4822882;29;20565;-78
2024/02/19 05:26:57;;;;;;;5.20;1.90;;;;;;;9.70;85.48;100658.38;4822664;29;20054;-79
2024/02/19 05:29:24;;;;;;;4.63;2.00;;;;;;;9.70;85.25;100656.63;4822881;29;20054;-79
2024/02/19 05:31:54;;;;;;;3.33;1.88;;;;;;;9.71;85.26;100652.19;4806628;29;20089;-78
2024/02/19 05:34:20;;;;;;;5.32;2.03;;;;;;;9.71;85.35;100653.06;4806522;29;20137;-82
2024/02/19 05:36:47;;;;;;;4.75;2.10;;;;;;;9.71;85.38;100655.69;4822345;29;20066;-78
2024/02/19 05:39:14;;;;;;;6.15;2.22;;;;;;;9.74;85.35;100658.22;4822893;29;20191;-80
2024/02/19 05:41:40;;;;;;;6.68;1.90;;;;;;;9.75;85.33;100657.28;4822765;29;20149;-80
2024/02/19 05:44:07;;;;;;;6.80;2.63;;;;;;;9.75;85.23;100654.66;4822637;29;20046;-78
2024/02/19 05:46:34;;;;;;;13.20;3.97;;;;;;;9.78;85.35;100662.44;4806271;29;20062;-79
2024/02/19 05:49:00;;;;;;;6.13;4.18;;;;;;;9.78;85.10;100662.44;4805778;29;20054;-78
2024/02/19 05:51:27;;;;;;;12.13;6.05;;;;;;;9.80;85.20;100656.25;4806439;29;20062;-80
2024/02/19 05:53:54;;;;;;;10.73;5.63;;;;;;;9.81;85.25;100663.22;4822724;29;20115;-76
2024/02/19 05:56:21;;;;;;;12.80;5.25;;;;;;;9.82;85.33;100665.78;4822640;29;20130;-79
2024/02/19 05:58:48;;;;;;;13.80;6.13;;;;;;;9.82;85.16;100660.53;4822366;29;20061;-79
2024/02/19 06:01:14;;;;;;;9.27;5.13;;;;;;;9.84;85.31;100665.75;4822513;29;20111;-79
2024/02/19 06:03:41;;;;;;;8.20;4.22;;;;;;;9.84;85.27;100668.38;4822222;29;20540;-82
2024/02/19 06:06:08;;;;;;;13.93;3.55;;;;;;;9.83;85.22;100662.25;4822252;29;20138;-81
2024/02/19 06:08:34;;;;;;;12.75;3.33;;;;;;;9.86;85.23;100671.78;4821735;29;20066;-78
2024/02/19 06:11:03;;;;;;;6.82;3.03;;;;;;;9.85;84.98;100668.31;4821265;29;20054;-78
2024/02/19 06:13:29;;;;;;;7.45;3.15;;;;;;;9.88;85.13;100677.84;4805357;29;20061;-80
2024/02/19 06:15:56;;;;;;;6.55;3.40;;;;;;;9.87;85.16;100676.16;4821761;29;20136;-77
2024/02/19 06:18:23;;;;;;;10.93;3.72;;;;;;;9.87;84.87;100674.34;4821495;29;20058;-80
2024/02/19 06:20:49;;;;;;;14.02;4.30;;;;;;;9.88;85.02;100680.47;4821975;29;20062;-79
2024/02/19 06:23:16;;;;;;;17.83;4.65;;;;;;;9.87;84.98;100678.78;4821694;29;20500;-81
2024/02/19 06:25:43;;;;;;;9.52;4.10;;;;;;;9.87;85.04;100678.78;4822506;29;20548;-78
2024/02/19 06:28:10;;;;;;;15.82;4.32;;;;;;;9.87;84.97;100684.03;4822011;29;20130;-77
2024/02/19 06:30:37;;;;;;;10.13;4.10;;;;;;;9.87;85.16;100691.94;4821951;29;20054;-79
2024/02/19 06:33:04;;;;;;;10.38;3.90;;;;;;;9.86;85.04;100690.19;4805703;29;20233;-80
2024/02/19 06:35:31;;;;;;;11.85;3.65;;;;;;;9.85;85.07;100693.75;4821821;29;20054;-80
2024/02/19 06:37:58;;;;;;;9.13;3.38;;;;;;;9.85;85.00;100702.50;4821053;29;20137;-81
2024/02/19 06:40:26;;;;;;;15.25;3.78;;;;;;;9.85;85.02;100697.25;4821634;29;20137;-79
2024/02/19 06:42:53;;;;;;;15.05;3.83;;;;;;;9.85;85.20;100699.00;4821758;29;20133;-80
2024/02/19 06:45:21;;;;;;;15.75;3.95;;;;;;;9.84;85.11;100700.78;4820729;29;20062;-80
2024/02/19 06:47:48;;;;;;;14.65;4.20;;;;;;;9.83;84.98;100700.84;4820225;29;20154;-84
2024/02/19 06:50:14;;;;;;;16.55;3.30;;;;;;;9.83;85.20;100703.47;4820398;29;20069;-82
2024/02/19 06:52:45;;;;;;;11.20;3.80;;;;;;;9.83;85.34;100709.56;4820337;29;20093;-80
2024/02/19 06:55:14;;;;;;;17.60;3.85;;;;;;;9.83;85.22;100714.00;4803994;29;20054;-81
2024/02/19 06:57:41;;;;;;;11.93;3.38;;;;;;;9.83;85.22;100721.88;4820020;29;20501;-80
2024/02/19 07:00:09;;;;;;;17.17;3.45;;;;;;;9.83;85.57;100712.19;4803857;29;20090;-78
2024/02/19 07:02:37;;;;;;;10.55;3.38;;;;;;;9.83;85.70;100720.09;4821674;29;20056;-80
2024/02/19 07:05:06;;;;;;;15.27;3.60;;;;;;;9.84;85.59;100713.94;4821694;29;20062;-82
2024/02/19 07:07:34;;;;;;;16.38;3.47;;;;;;;9.85;85.86;100722.66;4821256;29;20495;-79
2024/02/19 07:10:02;;;;;;;14.38;3.53;;;;;;;9.86;85.90;100717.34;4821665;29;20496;-77
2024/02/19 07:12:29;;;;;;;12.38;3.30;;;;;;;9.87;85.86;100716.44;4821573;29;20145;-78
2024/02/19 07:14:55;;;;;;;15.55;3.67;;;;;;;9.89;85.93;100714.63;4805480;29;20085;-80
2024/02/19 07:17:22;;;;;;;15.80;3.22;;;;;;;9.90;85.96;100704.94;4821110;29;20059;-80
2024/02/19 07:19:50;;;;;;;13.23;3.40;;;;;;;9.93;85.94;100712.72;4821497;29;20065;-77
2024/02/19 07:22:17;;;;;;;13.00;3.72;;;;;;;9.94;85.84;100703.91;4821525;29;20066;-81
2024/02/19 07:24:43;;;;;;;22.70;4.25;;;;;;;9.94;85.55;100701.25;4804532;29;20058;-79
2024/02/19 07:27:10;;;;;;;23.83;4.47;;;;;;;9.95;85.58;100704.75;4820458;29;20053;-79
2024/02/19 07:29:37;;;;;;;23.70;4.47;;;;;;;9.96;85.65;100723.13;4820931;29;20066;-83
2024/02/19 07:32:03;;;;;;;16.45;4.22;;;;;;;9.97;85.74;100731.84;4821205;29;20091;-77
2024/02/19 07:34:30;;;;;;;23.98;4.35;;;;;;;9.97;85.78;100721.31;4821392;29;20089;-78
2024/02/19 07:36:57;;;;;;;14.15;4.60;;;;;;;9.98;85.83;100728.31;4821354;29;20526;-81
2024/02/19 07:39:23;;;;;;;20.08;4.38;;;;;;;9.99;85.92;100736.13;4821258;29;20393;-77
2024/02/19 07:41:50;;;;;;;19.63;4.85;;;;;;;10.00;85.96;100729.97;4821167;29;20054;-79
2024/02/19 07:44:17;;;;;;;19.88;4.38;;;;;;;10.02;86.08;100735.19;4821264;29;20047;-78
2024/02/19 07:46:44;;;;;;;20.63;4.40;;;;;;;10.02;86.16;100736.03;4821103;29;20054;-77
2024/02/19 07:49:10;;;;;;;14.18;4.38;;;;;;;10.04;86.05;100734.19;4820942;29;20469;-80
2024/02/19 07:51:37;;;;;;;19.27;4.10;;;;;;;10.07;85.98;100733.22;4820649;29;20062;-81
2024/02/19 07:54:04;;;;;;;21.38;5.50;;;;;;;10.06;85.73;100720.13;4804608;29;20058;-80
2024/02/19 07:56:32;;;;;;;24.10;4.45;;;;;;;10.03;85.02;100700.06;4820835;29;20111;-78
2024/02/19 07:58:58;;;;;;;14.98;4.20;;;;;;;9.97;84.44;100716.06;4820919;29;20070;-80
2024/02/19 08:01:25;;;;;;;17.00;3.92;;;;;;;9.94;84.92;100724.09;4804666;29;20103;-78
2024/02/19 08:03:52;;;;;;;18.75;4.22;;;;;;;9.89;85.36;100719.00;4820987;29;20058;-79
2024/02/19 08:06:18;;;;;;;13.60;4.25;;;;;;;9.85;85.58;100709.53;4821168;29;20114;-82
2024/02/19 08:08:45;;;;;;;18.08;4.40;;;;;;;9.83;86.04;100722.72;4820922;29;20050;-79
2024/02/19 08:11:13;;;;;;;20.98;4.85;;;;;;;9.82;86.04;100712.25;4822795;29;20781;-78
2024/02/19 08:13:42;;;;;;;19.25;4.78;;;;;;;9.80;86.42;100722.00;4824338;29;20112;-81
2024/02/19 08:16:13;;;;;;;21.58;5.05;;;;;;;9.81;86.69;100724.56;4808087;29;20050;-82
2024/02/19 08:18:40;;;;;;;21.88;5.68;;;;;;;9.83;87.14;100717.47;4823872;29;20058;-79
2024/02/19 08:21:07;;;;;;;21.63;4.85;;;;;;;9.86;87.39;100714.72;4823928;29;20047;-81
2024/02/19 08:23:35;;;;;;;23.58;5.97;;;;;;;9.89;87.63;100703.22;4823862;29;20086;-80
2024/02/19 08:26:02;;;;;;;22.20;5.55;;;;;;;9.92;87.69;100708.38;4807986;29;20133;-78
2024/02/19 08:28:29;;;;;;;20.58;5.72;;;;;;;9.95;87.46;100705.63;4823767;29;20054;-78
2024/02/19 08:30:55;;;;;;;20.30;6.80;;;;;;;9.99;88.04;100709.81;4824008;29;20058;-79
2024/02/19 08:33:22;;;;;;;20.25;6.28;;;;;;;10.03;87.93;100708.78;4823822;29;20493;-79
2024/02/19 08:35:52;;;;;;;20.90;5.80;;;;;;;10.08;88.01;100713.00;4823683;29;20557;-78
2024/02/19 08:38:18;;;;;;;29.20;6.45;;;;;;;10.13;88.05;100716.34;4823477;29;20124;-79
2024/02/19 08:40:45;;;;;;;26.33;7.10;;;;;;;10.19;88.28;100716.09;4823943;29;20050;-78
2024/02/19 08:43:12;;;;;;;27.20;7.63;;;;;;;10.23;88.09;100722.94;4823834;29;20081;-78
2024/02/19 08:45:39;;;;;;;27.77;8.63;;;;;;;10.27;87.74;100715.78;4823789;29;20145;-79
2024/02/19 08:48:07;;;;;;;26.88;8.50;;;;;;;10.31;87.43;100720.00;4823236;29;20055;-82
2024/02/19 08:50:34;;;;;;;26.63;9.05;;;;;;;10.37;87.21;100713.63;4823479;29;20107;-78
2024/02/19 08:53:01;;;;;;;29.88;9.20;;;;;;;10.38;87.06;100716.22;4807349;29;20133;-83
2024/02/19 08:55:28;;;;;;;25.40;9.50;;;;;;;10.40;87.19;100703.81;4823628;29;20429;-77
2024/02/19 08:57:54;;;;;;;29.35;8.95;;;;;;;10.43;87.69;100708.97;4807148;29;20429;-79
2024/02/19 09:00:21;;;;;;;29.92;9.73;;;;;;;10.47;87.70;100711.53;4823496;29;20512;-80
2024/02/19 09:02:48;;;;;;;32.00;9.13;;;;;;;10.50;87.32;100709.59;4823263;29;20116;-77
2024/02/19 09:05:15;;;;;;;33.50;8.70;;;;;;;10.53;87.83;100698.97;4823395;29;20155;-78
2024/02/19 09:07:41;;;;;;;24.95;8.07;;;;;;;10.56;87.77;100703.22;4823129;29;20058;-77
2024/02/19 09:10:08;;;;;;;20.27;7.95;;;;;;;10.59;87.72;100702.25;4823386;29;20115;-81
2024/02/19 09:12:35;;;;;;;22.48;8.05;;;;;;;10.63;87.86;100699.44;4823559;29;20103;-79
2024/02/19 09:15:04;;;;;;;21.30;8.02;;;;;;;10.65;87.57;100702.84;4807025;29;20077;-77
2024/02/19 09:17:30;;;;;;;27.65;7.95;;;;;;;10.69;87.39;100698.28;4822945;29;20060;-79
2024/02/19 09:19:57;;;;;;;25.75;6.93;;;;;;;10.72;87.54;100702.59;4823306;29;20059;-80
2024/02/19 09:22:24;;;;;;;30.80;8.27;;;;;;;10.74;87.35;100695.47;4822423;29;20057;-77
2024/02/19 09:24:51;;;;;;;26.33;7.63;;;;;;;10.74;86.64;100690.22;4823067;29;20523;-79
2024/02/19 09:27:18;;;;;;;18.95;8.15;;;;;;;10.74;86.56;100685.81;4822725;29;20054;-81
2024/02/19 09:29:45;;;;;;;18.67;6.88;;;;;;;10.76;86.73;100696.28;4806777;29;20061;-77
2024/02/19 09:32:12;;;;;;;26.63;7.82;;;;;;;10.74;86.64;100688.44;4822880;29;20054;-77
2024/02/19 09:34:40;;;;;;;20.52;6.88;;;;;;;10.76;86.92;100689.22;4822803;29;20535;-82
2024/02/19 09:37:07;;;;;;;21.05;7.55;;;;;;;10.76;86.80;100691.84;4822618;29;20058;-80
2024/02/19 09:39:33;;;;;;;23.48;7.93;;;;;;;10.77;86.76;100696.19;4822807;29;20493;-82
2024/02/19 09:42:00;;;;;;;26.02;7.70;;;;;;;10.79;86.75;100694.38;4822815;29;20054;-79
2024/02/19 09:44:27;;;;;;;21.67;7.60;;;;;;;10.80;86.90;100698.72;4822767;29;20097;-81
2024/02/19 09:47:00;;;;;;;30.73;8.60;;;;;;;10.81;86.87;100702.22;4822507;29;20051;-77
2024/02/19 09:49:28;;;;;;;18.05;7.75;;;;;;;10.84;87.08;100701.22;4822777;29;20063;-80
2024/02/19 09:51:57;;;;;;;21.40;8.15;;;;;;;10.86;87.10;100689.69;4822845;29;20138;-81
2024/02/19 09:59:50;;;;;;;25.25;8.10;;;;;;;10.96;87.32;100687.53;4822480;29;20427;-77
2024/02/19 10:02:19;;;;;;;25.60;9.25;;;;;;;10.98;87.52;100683.03;4822414;29;20548;-77
2024/02/19 10:04:49;;;;;;;23.70;8.65;;;;;;;11.01;87.38;100682.91;4823462;29;20050;-76
2024/02/19 10:07:18;;;;;;;32.63;9.93;;;;;;;11.04;86.99;100689.81;4822982;29;20057;-78
2024/02/19 10:09:46;;;;;;;28.73;9.45;;;;;;;11.06;86.97;100690.59;4823456;29;20057;-80
2024/02/19 10:12:13;;;;;;;25.30;10.00;;;;;;;11.09;87.26;100682.56;4823396;29;20062;-81
2024/02/19 10:14:39;;;;;;;31.45;11.65;;;;;;;11.04;86.41;100685.41;4823407;29;20471;-77
2024/02/19 10:17:06;;;;;;;28.35;9.98;;;;;;;11.07;87.37;100682.63;4823439;29;20061;-77
2024/02/19 10:19:33;;;;;;;31.33;10.70;;;;;;;11.11;87.74;100683.34;4823103;29;20065;-77
2024/02/19 10:22:00;;;;;;;26.17;9.75;;;;;;;11.15;87.97;100684.06;4823389;29;20428;-79
2024/02/19 10:24:26;;;;;;;31.63;10.80;;;;;;;11.18;87.64;100686.56;4823103;29;20054;-77
2024/02/19 10:26:53;;;;;;;35.15;11.63;;;;;;;11.21;87.88;100689.03;4823297;29;20133;-76
2024/02/19 10:29:21;;;;;;;26.83;11.15;;;;;;;11.25;87.75;100682.72;4823287;29;20058;-77
2024/02/19 10:31:47;;;;;;;29.40;10.80;;;;;;;11.29;87.79;100697.47;4823018;29;20080;-77
2024/02/19 10:34:16;;;;;;;22.08;9.65;;;;;;;11.32;87.98;100692.06;4822923;29;20054;-76
2024/02/19 10:36:45;;;;;;;26.13;10.02;;;;;;;11.37;88.65;100689.25;4822840;29;20050;-80
2024/02/19 10:39:12;;;;;;;21.83;9.52;;;;;;;11.45;89.34;100691.50;4807051;29;20099;-76
2024/02/19 10:41:38;;;;;;;30.10;11.15;;;;;;;11.53;89.60;100689.38;4822929;29;20422;-81
2024/02/19 10:44:05;;;;;;;24.75;10.30;;;;;;;11.62;89.96;100682.81;4806391;29;20050;-78
2024/02/19 10:46:33;;;;;;;21.13;9.70;;;;;;;11.72;89.78;100692.03;4823012;29;20085;-76
2024/02/19 10:49:00;;;;;;;25.15;11.50;;;;;;;11.78;88.19;100679.47;4822657;29;20050;-76
2024/02/19 10:51:29;;;;;;;29.02;11.32;;;;;;;11.81;87.42;100674.91;4822747;29;20719;-76
2024/02/19 10:54:03;;;;;;;24.30;9.60;;;;;;;11.83;86.53;100688.00;4806660;29;20242;-79
2024/02/19 10:56:35;;;;;;;25.80;9.73;;;;;;;11.91;88.55;100685.00;4822919;29;20633;-76
2024/02/19 10:59:01;;;;;;;28.47;10.03;;;;;;;12.00;89.84;100671.38;4806284;29;20051;-78
2024/02/19 11:01:46;;;;;;;30.38;10.18;;;;;;;12.09;88.64;100668.34;4822291;29;20552;-78
2024/02/19 11:04:16;;;;;;;19.40;9.75;;;;;;;12.25;88.57;100672.84;4822026;29;20054;-78
2024/02/19 11:06:47;;;;;;;24.52;9.38;;;;;;;12.33;87.43;100662.75;4821959;29;20101;-88
2024/02/19 11:09:14;;;;;;;22.83;8.85;;;;;;;12.45;88.54;100661.28;4805701;29;20058;-77
2024/02/19 11:11:53;;;;;;;22.63;8.52;;;;;;;12.54;87.66;100667.91;4822015;29;20089;-76
2024/02/19 11:14:24;;;;;;;22.65;8.90;;;;;;;12.58;86.17;100658.91;4822362;29;20090;-78
2024/02/19 11:16:53;;;;;;;21.67;9.60;;;;;;;12.65;86.41;100659.44;4822099;29;20422;-76
2024/02/19 11:19:20;;;;;;;30.27;10.38;;;;;;;12.66;84.83;100655.00;4822629;29;20123;-77
2024/02/19 11:21:47;;;;;;;31.50;10.88;;;;;;;12.65;84.51;100659.44;4822336;29;20602;-81
2024/02/19 11:24:14;;;;;;;24.38;9.40;;;;;;;12.63;84.58;100648.94;4806219;29;20055;-77
2024/02/19 11:26:41;;;;;;;27.20;10.88;;;;;;;12.57;84.17;100644.00;4822231;29;20496;-77
2024/02/19 11:29:15;;;;;;;27.45;10.48;;;;;;;12.53;83.19;100653.00;4822377;29;20090;-79